sensor_id;sensor_type;location;lat;lon;timestamp;temperature;humidity
21891;DHT22;11110;52.386;16.940;2022-10-16T00:01:24;28.60;46.60
21891;DHT22;11110;52.386;16.940;2022-10-16T00:03:52;28.60;46.60
21891;DHT22;11110;52.386;16.940;2022-10-16T00:06:22;28.50;46.60
21891;DHT22;11110;52.386;16.940;2022-10-16T00:08:51;28.60;46.60
21891;DHT22;11110;52.386;16.940;2022-10-16T00:11:21;28.50;46.50
21891;DHT22;11110;52.386;16.940;2022-10-16T00:13:51;28.50;46.50
21891;DHT22;11110;52.386;16.940;2022-10-16T00:16:21;28.60;46.70
21891;DHT22;11110;52.386;16.940;2022-10-16T00:18:50;28.50;46.60
21891;DHT22;11110;52.386;16.940;2022-10-16T00:21:21;28.50;46.60
21891;DHT22;11110;52.386;16.940;2022-10-16T00:23:51;28.50;46.70
21891;DHT22;11110;52.386;16.940;2022-10-16T00:26:19;28.50;46.70
21891;DHT22;11110;52.386;16.940;2022-10-16T00:28:48;28.60;46.80
21891;DHT22;11110;52.386;16.940;2022-10-16T00:31:18;28.50;46.70
21891;DHT22;11110;52.386;16.940;2022-10-16T00:33:48;28.50;46.70
21891;DHT22;11110;52.386;16.940;2022-10-16T00:36:19;28.60;46.80
21891;DHT22;11110;52.386;16.940;2022-10-16T00:38:50;28.50;46.80
21891;DHT22;11110;52.386;16.940;2022-10-16T00:41:21;28.50;46.80
21891;DHT22;11110;52.386;16.940;2022-10-16T00:43:51;28.50;46.80
21891;DHT22;11110;52.386;16.940;2022-10-16T00:46:22;28.50;46.80
21891;DHT22;11110;52.386;16.940;2022-10-16T00:48:55;28.50;46.80
21891;DHT22;11110;52.386;16.940;2022-10-16T00:51:28;28.40;46.70
21891;DHT22;11110;52.386;16.940;2022-10-16T00:53:58;28.50;46.80
21891;DHT22;11110;52.386;16.940;2022-10-16T00:56:27;28.50;46.80
21891;DHT22;11110;52.386;16.940;2022-10-16T00:58:56;28.50;46.90
21891;DHT22;11110;52.386;16.940;2022-10-16T01:01:24;28.50;46.90
21891;DHT22;11110;52.386;16.940;2022-10-16T01:03:54;28.50;46.90
21891;DHT22;11110;52.386;16.940;2022-10-16T01:06:25;28.50;47.00
21891;DHT22;11110;52.386;16.940;2022-10-16T01:09:13;28.60;47.00
21891;DHT22;11110;52.386;16.940;2022-10-16T01:11:52;28.60;47.00
21891;DHT22;11110;52.386;16.940;2022-10-16T01:14:25;28.60;47.10
21891;DHT22;11110;52.386;16.940;2022-10-16T01:16:58;28.50;47.10
21891;DHT22;11110;52.386;16.940;2022-10-16T01:19:40;28.50;47.10
21891;DHT22;11110;52.386;16.940;2022-10-16T01:22:13;28.50;47.10
21891;DHT22;11110;52.386;16.940;2022-10-16T01:24:44;28.50;47.10
21891;DHT22;11110;52.386;16.940;2022-10-16T01:27:22;28.60;47.10
21891;DHT22;11110;52.386;16.940;2022-10-16T01:29:56;28.60;47.20
21891;DHT22;11110;52.386;16.940;2022-10-16T01:32:32;28.60;47.20
21891;DHT22;11110;52.386;16.940;2022-10-16T01:35:03;28.60;47.10
21891;DHT22;11110;52.386;16.940;2022-10-16T01:37:36;28.60;47.20
21891;DHT22;11110;52.386;16.940;2022-10-16T01:40:09;28.60;47.10
21891;DHT22;11110;52.386;16.940;2022-10-16T01:42:42;28.60;47.20
21891;DHT22;11110;52.386;16.940;2022-10-16T01:45:14;28.60;47.20
21891;DHT22;11110;52.386;16.940;2022-10-16T01:47:46;28.60;47.20
21891;DHT22;11110;52.386;16.940;2022-10-16T01:50:16;28.60;47.10
21891;DHT22;11110;52.386;16.940;2022-10-16T01:52:49;28.60;47.20
21891;DHT22;11110;52.386;16.940;2022-10-16T01:55:24;28.60;47.20
21891;DHT22;11110;52.386;16.940;2022-10-16T01:57:55;28.60;47.80
21891;DHT22;11110;52.386;16.940;2022-10-16T02:00:24;28.70;47.20
21891;DHT22;11110;52.386;16.940;2022-10-16T02:02:55;28.50;47.20
21891;DHT22;11110;52.386;16.940;2022-10-16T02:05:27;28.70;47.20
21891;DHT22;11110;52.386;16.940;2022-10-16T02:07:56;28.70;47.20
21891;DHT22;11110;52.386;16.940;2022-10-16T02:10:29;28.70;47.20
21891;DHT22;11110;52.386;16.940;2022-10-16T02:13:05;28.70;47.20
21891;DHT22;11110;52.386;16.940;2022-10-16T02:15:34;28.80;47.30
21891;DHT22;11110;52.386;16.940;2022-10-16T02:18:02;28.70;47.30
21891;DHT22;11110;52.386;16.940;2022-10-16T02:20:34;28.70;47.30
21891;DHT22;11110;52.386;16.940;2022-10-16T02:23:06;28.80;47.40
21891;DHT22;11110;52.386;16.940;2022-10-16T02:25:40;28.80;47.30
21891;DHT22;11110;52.386;16.940;2022-10-16T02:28:16;28.80;47.30
21891;DHT22;11110;52.386;16.940;2022-10-16T02:30:50;28.80;47.30
21891;DHT22;11110;52.386;16.940;2022-10-16T02:33:21;28.80;47.40
21891;DHT22;11110;52.386;16.940;2022-10-16T02:35:51;28.80;47.30
21891;DHT22;11110;52.386;16.940;2022-10-16T02:38:20;28.80;47.40
21891;DHT22;11110;52.386;16.940;2022-10-16T02:40:49;28.80;47.30
21891;DHT22;11110;52.386;16.940;2022-10-16T02:43:20;28.80;47.30
21891;DHT22;11110;52.386;16.940;2022-10-16T02:45:48;28.80;47.20
21891;DHT22;11110;52.386;16.940;2022-10-16T02:48:16;28.80;47.30
21891;DHT22;11110;52.386;16.940;2022-10-16T02:50:44;28.80;47.30
21891;DHT22;11110;52.386;16.940;2022-10-16T02:53:13;28.80;47.30
21891;DHT22;11110;52.386;16.940;2022-10-16T02:55:41;28.80;47.30
21891;DHT22;11110;52.386;16.940;2022-10-16T02:58:09;28.90;47.50
21891;DHT22;11110;52.386;16.940;2022-10-16T03:00:39;28.80;47.40
21891;DHT22;11110;52.386;16.940;2022-10-16T03:03:07;28.90;47.60
21891;DHT22;11110;52.386;16.940;2022-10-16T03:05:35;28.80;47.50
21891;DHT22;11110;52.386;16.940;2022-10-16T03:08:04;28.80;47.60
21891;DHT22;11110;52.386;16.940;2022-10-16T03:10:32;28.80;47.60
21891;DHT22;11110;52.386;16.940;2022-10-16T03:13:01;29.00;48.40
21891;DHT22;11110;52.386;16.940;2022-10-16T03:15:29;28.80;48.20
21891;DHT22;11110;52.386;16.940;2022-10-16T03:17:59;28.90;47.60
21891;DHT22;11110;52.386;16.940;2022-10-16T03:20:27;28.90;47.60
21891;DHT22;11110;52.386;16.940;2022-10-16T03:22:55;28.90;47.70
21891;DHT22;11110;52.386;16.940;2022-10-16T03:25:24;28.90;47.70
21891;DHT22;11110;52.386;16.940;2022-10-16T03:27:52;28.90;47.60
21891;DHT22;11110;52.386;16.940;2022-10-16T03:30:20;28.90;47.60
21891;DHT22;11110;52.386;16.940;2022-10-16T03:32:49;28.90;47.60
21891;DHT22;11110;52.386;16.940;2022-10-16T03:35:22;28.90;47.60
21891;DHT22;11110;52.386;16.940;2022-10-16T03:37:51;28.90;47.70
21891;DHT22;11110;52.386;16.940;2022-10-16T03:40:20;28.90;47.70
21891;DHT22;11110;52.386;16.940;2022-10-16T03:42:48;28.90;47.80
21891;DHT22;11110;52.386;16.940;2022-10-16T03:45:16;28.90;47.90
21891;DHT22;11110;52.386;16.940;2022-10-16T03:47:45;28.90;47.90
21891;DHT22;11110;52.386;16.940;2022-10-16T03:50:14;28.90;47.90
21891;DHT22;11110;52.386;16.940;2022-10-16T03:52:44;29.10;48.00
21891;DHT22;11110;52.386;16.940;2022-10-16T03:55:12;28.90;47.90
21891;DHT22;11110;52.386;16.940;2022-10-16T03:57:40;28.90;47.90
21891;DHT22;11110;52.386;16.940;2022-10-16T04:00:10;28.90;47.90
21891;DHT22;11110;52.386;16.940;2022-10-16T04:02:39;28.90;47.80
21891;DHT22;11110;52.386;16.940;2022-10-16T04:05:08;28.90;47.90
21891;DHT22;11110;52.386;16.940;2022-10-16T04:07:37;28.90;48.00
21891;DHT22;11110;52.386;16.940;2022-10-16T04:10:07;28.90;48.00
21891;DHT22;11110;52.386;16.940;2022-10-16T04:12:36;29.00;48.10
21891;DHT22;11110;52.386;16.940;2022-10-16T04:15:04;28.90;48.00
21891;DHT22;11110;52.386;16.940;2022-10-16T04:17:33;28.90;48.10
21891;DHT22;11110;52.386;16.940;2022-10-16T04:20:01;28.90;48.20
21891;DHT22;11110;52.386;16.940;2022-10-16T04:22:29;29.00;48.30
21891;DHT22;11110;52.386;16.940;2022-10-16T04:24:58;29.00;48.30
21891;DHT22;11110;52.386;16.940;2022-10-16T04:27:27;29.00;48.20
21891;DHT22;11110;52.386;16.940;2022-10-16T04:29:58;29.00;48.30
21891;DHT22;11110;52.386;16.940;2022-10-16T04:32:26;29.00;48.40
21891;DHT22;11110;52.386;16.940;2022-10-16T04:34:54;28.80;48.30
21891;DHT22;11110;52.386;16.940;2022-10-16T04:37:24;29.00;48.50
21891;DHT22;11110;52.386;16.940;2022-10-16T04:39:53;29.00;48.50
21891;DHT22;11110;52.386;16.940;2022-10-16T04:42:22;29.00;48.60
21891;DHT22;11110;52.386;16.940;2022-10-16T04:44:52;29.00;48.60
21891;DHT22;11110;52.386;16.940;2022-10-16T04:47:20;29.00;48.70
21891;DHT22;11110;52.386;16.940;2022-10-16T04:49:48;29.00;48.60
21891;DHT22;11110;52.386;16.940;2022-10-16T04:52:17;29.00;48.70
21891;DHT22;11110;52.386;16.940;2022-10-16T04:54:45;29.00;48.70
21891;DHT22;11110;52.386;16.940;2022-10-16T04:57:14;29.00;48.80
21891;DHT22;11110;52.386;16.940;2022-10-16T04:59:42;29.00;48.80
21891;DHT22;11110;52.386;16.940;2022-10-16T05:02:12;28.80;48.70
21891;DHT22;11110;52.386;16.940;2022-10-16T05:04:40;29.00;48.80
21891;DHT22;11110;52.386;16.940;2022-10-16T05:07:08;29.00;48.80
21891;DHT22;11110;52.386;16.940;2022-10-16T05:09:36;29.00;48.80
21891;DHT22;11110;52.386;16.940;2022-10-16T05:12:05;29.00;48.80
21891;DHT22;11110;52.386;16.940;2022-10-16T05:14:33;29.00;48.80
21891;DHT22;11110;52.386;16.940;2022-10-16T05:17:02;29.00;48.90
21891;DHT22;11110;52.386;16.940;2022-10-16T05:19:31;29.10;48.90
21891;DHT22;11110;52.386;16.940;2022-10-16T05:21:59;29.10;49.00
21891;DHT22;11110;52.386;16.940;2022-10-16T05:24:28;29.00;48.80
21891;DHT22;11110;52.386;16.940;2022-10-16T05:26:56;29.00;48.80
21891;DHT22;11110;52.386;16.940;2022-10-16T05:29:24;29.00;48.80
21891;DHT22;11110;52.386;16.940;2022-10-16T05:31:53;29.00;48.90
21891;DHT22;11110;52.386;16.940;2022-10-16T05:34:21;29.10;49.00
21891;DHT22;11110;52.386;16.940;2022-10-16T05:36:51;29.10;49.00
21891;DHT22;11110;52.386;16.940;2022-10-16T05:39:19;29.00;48.90
21891;DHT22;11110;52.386;16.940;2022-10-16T05:41:49;29.00;49.00
21891;DHT22;11110;52.386;16.940;2022-10-16T05:44:17;29.00;49.00
21891;DHT22;11110;52.386;16.940;2022-10-16T05:46:46;29.00;49.10
21891;DHT22;11110;52.386;16.940;2022-10-16T05:49:15;29.00;49.00
21891;DHT22;11110;52.386;16.940;2022-10-16T05:51:44;28.90;49.00
21891;DHT22;11110;52.386;16.940;2022-10-16T05:54:14;29.00;49.00
21891;DHT22;11110;52.386;16.940;2022-10-16T05:56:43;29.10;49.10
21891;DHT22;11110;52.386;16.940;2022-10-16T05:59:12;29.00;49.00
21891;DHT22;11110;52.386;16.940;2022-10-16T06:01:40;29.00;48.90
21891;DHT22;11110;52.386;16.940;2022-10-16T06:04:09;29.10;49.10
21891;DHT22;11110;52.386;16.940;2022-10-16T06:06:42;29.10;49.10
21891;DHT22;11110;52.386;16.940;2022-10-16T06:09:11;29.10;49.10
21891;DHT22;11110;52.386;16.940;2022-10-16T06:11:41;29.10;49.10
21891;DHT22;11110;52.386;16.940;2022-10-16T06:14:09;29.10;49.00
21891;DHT22;11110;52.386;16.940;2022-10-16T06:16:38;29.10;49.00
21891;DHT22;11110;52.386;16.940;2022-10-16T06:19:06;29.10;49.00
21891;DHT22;11110;52.386;16.940;2022-10-16T06:21:35;29.10;49.10
21891;DHT22;11110;52.386;16.940;2022-10-16T06:24:03;29.10;49.10
21891;DHT22;11110;52.386;16.940;2022-10-16T06:26:32;29.10;49.00
21891;DHT22;11110;52.386;16.940;2022-10-16T06:29:02;29.10;49.00
21891;DHT22;11110;52.386;16.940;2022-10-16T06:31:30;29.10;49.00
21891;DHT22;11110;52.386;16.940;2022-10-16T06:34:01;29.10;49.00
21891;DHT22;11110;52.386;16.940;2022-10-16T06:36:31;29.10;49.00
21891;DHT22;11110;52.386;16.940;2022-10-16T06:38:59;29.10;49.00
21891;DHT22;11110;52.386;16.940;2022-10-16T06:41:28;29.10;48.90
21891;DHT22;11110;52.386;16.940;2022-10-16T06:43:57;29.10;49.00
21891;DHT22;11110;52.386;16.940;2022-10-16T06:46:27;29.00;48.90
21891;DHT22;11110;52.386;16.940;2022-10-16T06:48:55;29.10;49.00
21891;DHT22;11110;52.386;16.940;2022-10-16T06:51:24;29.10;49.10
21891;DHT22;11110;52.386;16.940;2022-10-16T06:53:54;29.00;49.00
21891;DHT22;11110;52.386;16.940;2022-10-16T06:56:32;29.10;49.10
21891;DHT22;11110;52.386;16.940;2022-10-16T06:59:01;29.10;49.30
21891;DHT22;11110;52.386;16.940;2022-10-16T07:01:32;29.10;49.00
21891;DHT22;11110;52.386;16.940;2022-10-16T07:04:01;29.10;49.70
21891;DHT22;11110;52.386;16.940;2022-10-16T07:06:32;29.20;49.10
21891;DHT22;11110;52.386;16.940;2022-10-16T07:09:06;29.20;49.10
21891;DHT22;11110;52.386;16.940;2022-10-16T07:11:36;29.30;49.00
21891;DHT22;11110;52.386;16.940;2022-10-16T07:14:05;29.20;49.00
21891;DHT22;11110;52.386;16.940;2022-10-16T07:16:38;29.20;49.00
21891;DHT22;11110;52.386;16.940;2022-10-16T07:19:07;29.30;49.00
21891;DHT22;11110;52.386;16.940;2022-10-16T07:21:36;29.30;49.00
21891;DHT22;11110;52.386;16.940;2022-10-16T07:24:06;29.30;49.00
21891;DHT22;11110;52.386;16.940;2022-10-16T07:26:37;29.30;48.90
21891;DHT22;11110;52.386;16.940;2022-10-16T07:29:07;29.30;48.80
21891;DHT22;11110;52.386;16.940;2022-10-16T07:31:41;29.30;48.90
21891;DHT22;11110;52.386;16.940;2022-10-16T07:34:10;29.20;48.80
21891;DHT22;11110;52.386;16.940;2022-10-16T07:36:38;29.30;49.60
21891;DHT22;11110;52.386;16.940;2022-10-16T07:39:11;29.30;48.80
21891;DHT22;11110;52.386;16.940;2022-10-16T07:41:40;29.20;48.80
21891;DHT22;11110;52.386;16.940;2022-10-16T07:44:08;29.40;48.80
21891;DHT22;11110;52.386;16.940;2022-10-16T07:46:37;29.40;48.80
21891;DHT22;11110;52.386;16.940;2022-10-16T07:49:06;29.40;48.80
21891;DHT22;11110;52.386;16.940;2022-10-16T07:51:35;29.50;48.90
21891;DHT22;11110;52.386;16.940;2022-10-16T07:54:05;29.50;48.80
21891;DHT22;11110;52.386;16.940;2022-10-16T07:56:33;29.50;48.80
21891;DHT22;11110;52.386;16.940;2022-10-16T07:59:05;29.50;48.70
21891;DHT22;11110;52.386;16.940;2022-10-16T08:01:34;29.50;48.70
21891;DHT22;11110;52.386;16.940;2022-10-16T08:04:02;29.50;48.60
21891;DHT22;11110;52.386;16.940;2022-10-16T08:06:35;29.50;48.60
21891;DHT22;11110;52.386;16.940;2022-10-16T08:09:04;29.50;48.60
21891;DHT22;11110;52.386;16.940;2022-10-16T08:11:33;29.60;49.30
21891;DHT22;11110;52.386;16.940;2022-10-16T08:14:01;29.60;48.60
21891;DHT22;11110;52.386;16.940;2022-10-16T08:16:30;29.50;48.60
21891;DHT22;11110;52.386;16.940;2022-10-16T08:18:58;29.50;48.60
21891;DHT22;11110;52.386;16.940;2022-10-16T08:21:27;29.60;48.70
21891;DHT22;11110;52.386;16.940;2022-10-16T08:23:56;29.50;48.70
21891;DHT22;11110;52.386;16.940;2022-10-16T08:26:27;29.70;48.70
21891;DHT22;11110;52.386;16.940;2022-10-16T08:28:56;29.60;48.60
21891;DHT22;11110;52.386;16.940;2022-10-16T08:31:25;29.60;48.70
21891;DHT22;11110;52.386;16.940;2022-10-16T08:33:54;29.60;48.70
21891;DHT22;11110;52.386;16.940;2022-10-16T08:36:22;29.60;48.70
21891;DHT22;11110;52.386;16.940;2022-10-16T08:38:50;29.80;48.80
21891;DHT22;11110;52.386;16.940;2022-10-16T08:44:30;29.80;48.70
21891;DHT22;11110;52.386;16.940;2022-10-16T08:47:08;29.80;48.80
21891;DHT22;11110;52.386;16.940;2022-10-16T08:49:42;29.80;48.70
21891;DHT22;11110;52.386;16.940;2022-10-16T08:52:14;29.80;48.70
21891;DHT22;11110;52.386;16.940;2022-10-16T08:54:45;29.80;48.70
21891;DHT22;11110;52.386;16.940;2022-10-16T08:57:19;29.90;48.60
21891;DHT22;11110;52.386;16.940;2022-10-16T08:59:51;29.70;48.60
21891;DHT22;11110;52.386;16.940;2022-10-16T09:02:30;29.90;48.70
21891;DHT22;11110;52.386;16.940;2022-10-16T09:05:19;30.00;48.80
21891;DHT22;11110;52.386;16.940;2022-10-16T09:07:57;30.00;48.70
21891;DHT22;11110;52.386;16.940;2022-10-16T09:10:38;30.10;49.00
21891;DHT22;11110;52.386;16.940;2022-10-16T09:13:19;30.00;49.50
21891;DHT22;11110;52.386;16.940;2022-10-16T09:15:53;30.10;48.90
21891;DHT22;11110;52.386;16.940;2022-10-16T09:18:26;30.10;48.90
21891;DHT22;11110;52.386;16.940;2022-10-16T09:21:04;30.10;48.90
21891;DHT22;11110;52.386;16.940;2022-10-16T09:23:36;30.10;48.80
21891;DHT22;11110;52.386;16.940;2022-10-16T09:26:05;30.10;48.80
21891;DHT22;11110;52.386;16.940;2022-10-16T09:28:39;30.30;48.90
21891;DHT22;11110;52.386;16.940;2022-10-16T09:31:13;30.30;48.90
21891;DHT22;11110;52.386;16.940;2022-10-16T09:33:44;30.30;48.90
21891;DHT22;11110;52.386;16.940;2022-10-16T09:36:13;30.30;48.80
21891;DHT22;11110;52.386;16.940;2022-10-16T09:38:42;30.30;48.80
21891;DHT22;11110;52.386;16.940;2022-10-16T09:41:16;30.40;48.80
21891;DHT22;11110;52.386;16.940;2022-10-16T09:43:53;30.50;48.70
21891;DHT22;11110;52.386;16.940;2022-10-16T09:46:28;30.60;48.60
21891;DHT22;11110;52.386;16.940;2022-10-16T09:48:58;30.40;48.40
21891;DHT22;11110;52.386;16.940;2022-10-16T09:51:29;30.60;48.50
21891;DHT22;11110;52.386;16.940;2022-10-16T09:54:00;30.60;48.40
21891;DHT22;11110;52.386;16.940;2022-10-16T09:56:30;30.70;48.40
21891;DHT22;11110;52.386;16.940;2022-10-16T09:59:08;30.70;48.30
21891;DHT22;11110;52.386;16.940;2022-10-16T10:01:40;30.80;48.30
21891;DHT22;11110;52.386;16.940;2022-10-16T10:04:10;30.80;48.30
21891;DHT22;11110;52.386;16.940;2022-10-16T10:06:43;30.80;48.10
21891;DHT22;11110;52.386;16.940;2022-10-16T10:09:18;30.90;48.20
21891;DHT22;11110;52.386;16.940;2022-10-16T10:11:53;30.90;48.00
21891;DHT22;11110;52.386;16.940;2022-10-16T10:14:30;31.00;48.00
21891;DHT22;11110;52.386;16.940;2022-10-16T10:17:12;31.00;47.90
21891;DHT22;11110;52.386;16.940;2022-10-16T10:19:44;31.00;47.80
21891;DHT22;11110;52.386;16.940;2022-10-16T10:22:17;31.00;47.70
21891;DHT22;11110;52.386;16.940;2022-10-16T10:24:55;31.10;47.60
21891;DHT22;11110;52.386;16.940;2022-10-16T10:27:31;31.10;47.60
21891;DHT22;11110;52.386;16.940;2022-10-16T10:30:06;31.10;47.60
21891;DHT22;11110;52.386;16.940;2022-10-16T10:32:44;31.10;47.50
21891;DHT22;11110;52.386;16.940;2022-10-16T10:35:20;31.10;47.50
21891;DHT22;11110;52.386;16.940;2022-10-16T10:37:58;31.20;47.50
21891;DHT22;11110;52.386;16.940;2022-10-16T10:40:39;31.20;47.50
21891;DHT22;11110;52.386;16.940;2022-10-16T10:43:17;31.20;47.40
21891;DHT22;11110;52.386;16.940;2022-10-16T10:45:52;31.20;47.40
21891;DHT22;11110;52.386;16.940;2022-10-16T10:48:43;31.30;47.50
21891;DHT22;11110;52.386;16.940;2022-10-16T10:51:21;31.30;47.40
21891;DHT22;11110;52.386;16.940;2022-10-16T10:53:56;31.30;47.40
21891;DHT22;11110;52.386;16.940;2022-10-16T10:56:45;31.40;47.40
21891;DHT22;11110;52.386;16.940;2022-10-16T10:59:36;31.40;47.30
21891;DHT22;11110;52.386;16.940;2022-10-16T11:02:13;31.40;47.30
21891;DHT22;11110;52.386;16.940;2022-10-16T11:07:50;31.50;47.10
21891;DHT22;11110;52.386;16.940;2022-10-16T11:10:22;31.50;47.10
21891;DHT22;11110;52.386;16.940;2022-10-16T11:13:06;31.50;47.10
21891;DHT22;11110;52.386;16.940;2022-10-16T11:15:42;31.60;46.90
21891;DHT22;11110;52.386;16.940;2022-10-16T11:18:16;31.60;46.90
21891;DHT22;11110;52.386;16.940;2022-10-16T11:20:50;31.60;46.80
21891;DHT22;11110;52.386;16.940;2022-10-16T11:23:23;31.60;47.00
21891;DHT22;11110;52.386;16.940;2022-10-16T11:25:55;31.70;46.90
21891;DHT22;11110;52.386;16.940;2022-10-16T11:28:29;31.70;47.10
21891;DHT22;11110;52.386;16.940;2022-10-16T11:31:02;31.70;46.50
21891;DHT22;11110;52.386;16.940;2022-10-16T11:33:39;31.80;46.40
21891;DHT22;11110;52.386;16.940;2022-10-16T11:36:12;31.90;46.40
21891;DHT22;11110;52.386;16.940;2022-10-16T11:38:47;31.90;46.20
21891;DHT22;11110;52.386;16.940;2022-10-16T11:41:24;31.90;46.20
21891;DHT22;11110;52.386;16.940;2022-10-16T11:44:14;31.90;46.00
21891;DHT22;11110;52.386;16.940;2022-10-16T11:46:51;31.90;45.80
21891;DHT22;11110;52.386;16.940;2022-10-16T11:49:37;31.90;46.00
21891;DHT22;11110;52.386;16.940;2022-10-16T11:52:13;32.00;45.90
21891;DHT22;11110;52.386;16.940;2022-10-16T11:54:47;32.00;45.50
21891;DHT22;11110;52.386;16.940;2022-10-16T11:57:20;32.10;45.40
21891;DHT22;11110;52.386;16.940;2022-10-16T11:59:52;32.10;45.20
21891;DHT22;11110;52.386;16.940;2022-10-16T12:02:31;32.10;45.20
21891;DHT22;11110;52.386;16.940;2022-10-16T12:05:13;32.10;45.20
21891;DHT22;11110;52.386;16.940;2022-10-16T12:07:49;32.20;45.20
21891;DHT22;11110;52.386;16.940;2022-10-16T12:10:21;32.20;45.00
21891;DHT22;11110;52.386;16.940;2022-10-16T12:12:54;32.20;44.70
21891;DHT22;11110;52.386;16.940;2022-10-16T12:15:25;32.20;44.80
21891;DHT22;11110;52.386;16.940;2022-10-16T12:18:21;32.30;44.80
21891;DHT22;11110;52.386;16.940;2022-10-16T12:20:56;32.30;44.60
21891;DHT22;11110;52.386;16.940;2022-10-16T12:23:27;32.20;44.30
21891;DHT22;11110;52.386;16.940;2022-10-16T12:25:57;32.20;44.40
21891;DHT22;11110;52.386;16.940;2022-10-16T12:28:27;32.20;44.40
21891;DHT22;11110;52.386;16.940;2022-10-16T12:30:58;32.30;44.40
21891;DHT22;11110;52.386;16.940;2022-10-16T12:33:29;32.30;44.30
21891;DHT22;11110;52.386;16.940;2022-10-16T12:36:02;32.30;44.60
21891;DHT22;11110;52.386;16.940;2022-10-16T12:38:37;32.30;44.50
21891;DHT22;11110;52.386;16.940;2022-10-16T12:41:08;32.40;44.60
21891;DHT22;11110;52.386;16.940;2022-10-16T12:43:40;32.40;44.40
21891;DHT22;11110;52.386;16.940;2022-10-16T12:46:35;32.40;44.40
21891;DHT22;11110;52.386;16.940;2022-10-16T12:49:17;32.50;44.20
21891;DHT22;11110;52.386;16.940;2022-10-16T12:51:49;32.40;44.40
21891;DHT22;11110;52.386;16.940;2022-10-16T12:54:26;32.50;44.20
21891;DHT22;11110;52.386;16.940;2022-10-16T12:57:09;32.60;44.20
21891;DHT22;11110;52.386;16.940;2022-10-16T12:59:48;32.60;44.30
21891;DHT22;11110;52.386;16.940;2022-10-16T13:02:38;32.60;44.30
21891;DHT22;11110;52.386;16.940;2022-10-16T13:05:18;32.60;44.10
21891;DHT22;11110;52.386;16.940;2022-10-16T13:08:02;32.70;43.90
21891;DHT22;11110;52.386;16.940;2022-10-16T13:10:39;32.80;43.50
21891;DHT22;11110;52.386;16.940;2022-10-16T13:13:22;32.80;43.10
21891;DHT22;11110;52.386;16.940;2022-10-16T13:16:05;32.90;42.90
21891;DHT22;11110;52.386;16.940;2022-10-16T13:18:46;32.80;43.00
21891;DHT22;11110;52.386;16.940;2022-10-16T13:21:29;32.90;43.10
21891;DHT22;11110;52.386;16.940;2022-10-16T13:24:06;32.90;43.00
21891;DHT22;11110;52.386;16.940;2022-10-16T13:26:43;32.90;42.90
21891;DHT22;11110;52.386;16.940;2022-10-16T13:29:14;32.90;43.00
21891;DHT22;11110;52.386;16.940;2022-10-16T13:31:44;32.90;42.80
21891;DHT22;11110;52.386;16.940;2022-10-16T13:34:15;32.90;42.90
21891;DHT22;11110;52.386;16.940;2022-10-16T13:36:46;32.90;43.00
21891;DHT22;11110;52.386;16.940;2022-10-16T13:39:23;32.90;42.80
21891;DHT22;11110;52.386;16.940;2022-10-16T13:42:02;33.00;43.10
21891;DHT22;11110;52.386;16.940;2022-10-16T13:44:39;33.00;42.80
21891;DHT22;11110;52.386;16.940;2022-10-16T13:47:16;33.00;43.30
21891;DHT22;11110;52.386;16.940;2022-10-16T13:49:45;33.10;42.50
21891;DHT22;11110;52.386;16.940;2022-10-16T13:52:18;33.10;42.60
21891;DHT22;11110;52.386;16.940;2022-10-16T13:54:48;33.10;42.60
21891;DHT22;11110;52.386;16.940;2022-10-16T13:57:17;33.10;42.70
21891;DHT22;11110;52.386;16.940;2022-10-16T13:59:53;33.10;42.70
21891;DHT22;11110;52.386;16.940;2022-10-16T14:02:25;33.10;42.50
21891;DHT22;11110;52.386;16.940;2022-10-16T14:04:55;33.20;43.10
21891;DHT22;11110;52.386;16.940;2022-10-16T14:07:26;33.10;42.40
21891;DHT22;11110;52.386;16.940;2022-10-16T14:10:01;33.10;42.40
21891;DHT22;11110;52.386;16.940;2022-10-16T14:12:30;33.20;42.60
21891;DHT22;11110;52.386;16.940;2022-10-16T14:14:59;33.10;42.50
21891;DHT22;11110;52.386;16.940;2022-10-16T14:17:30;33.10;42.50
21891;DHT22;11110;52.386;16.940;2022-10-16T14:20:02;33.10;42.60
21891;DHT22;11110;52.386;16.940;2022-10-16T14:22:35;33.10;42.60
21891;DHT22;11110;52.386;16.940;2022-10-16T14:25:28;33.10;42.70
21891;DHT22;11110;52.386;16.940;2022-10-16T14:27:59;33.20;42.60
21891;DHT22;11110;52.386;16.940;2022-10-16T14:30:34;33.20;42.60
21891;DHT22;11110;52.386;16.940;2022-10-16T14:33:04;33.20;42.70
21891;DHT22;11110;52.386;16.940;2022-10-16T14:35:35;33.10;42.50
21891;DHT22;11110;52.386;16.940;2022-10-16T14:38:04;33.10;42.40
21891;DHT22;11110;52.386;16.940;2022-10-16T14:40:36;33.20;42.70
21891;DHT22;11110;52.386;16.940;2022-10-16T14:43:05;33.20;43.20
21891;DHT22;11110;52.386;16.940;2022-10-16T14:45:34;33.20;42.50
21891;DHT22;11110;52.386;16.940;2022-10-16T14:48:06;33.10;42.50
21891;DHT22;11110;52.386;16.940;2022-10-16T14:50:46;33.20;42.70
21891;DHT22;11110;52.386;16.940;2022-10-16T14:53:15;33.20;42.60
21891;DHT22;11110;52.386;16.940;2022-10-16T14:55:45;33.10;42.40
21891;DHT22;11110;52.386;16.940;2022-10-16T14:58:17;33.20;42.60
21891;DHT22;11110;52.386;16.940;2022-10-16T15:00:46;33.10;42.40
21891;DHT22;11110;52.386;16.940;2022-10-16T15:03:15;33.10;42.40
21891;DHT22;11110;52.386;16.940;2022-10-16T15:05:43;33.10;42.30
21891;DHT22;11110;52.386;16.940;2022-10-16T15:08:12;33.20;42.40
21891;DHT22;11110;52.386;16.940;2022-10-16T15:10:42;33.10;42.40
21891;DHT22;11110;52.386;16.940;2022-10-16T15:13:15;33.10;42.30
21891;DHT22;11110;52.386;16.940;2022-10-16T15:15:45;33.10;42.10
21891;DHT22;11110;52.386;16.940;2022-10-16T15:18:13;33.10;42.20
21891;DHT22;11110;52.386;16.940;2022-10-16T15:20:49;33.10;42.20
21891;DHT22;11110;52.386;16.940;2022-10-16T15:23:19;33.10;42.10
21891;DHT22;11110;52.386;16.940;2022-10-16T15:25:49;33.10;42.10
21891;DHT22;11110;52.386;16.940;2022-10-16T15:28:20;33.00;42.10
21891;DHT22;11110;52.386;16.940;2022-10-16T15:30:49;33.10;42.30
21891;DHT22;11110;52.386;16.940;2022-10-16T15:33:20;33.00;42.10
21891;DHT22;11110;52.386;16.940;2022-10-16T15:35:51;33.00;42.00
21891;DHT22;11110;52.386;16.940;2022-10-16T15:38:21;33.00;42.00
21891;DHT22;11110;52.386;16.940;2022-10-16T15:40:50;32.90;42.10
21891;DHT22;11110;52.386;16.940;2022-10-16T15:43:19;33.00;42.10
21891;DHT22;11110;52.386;16.940;2022-10-16T15:45:59;33.00;42.10
21891;DHT22;11110;52.386;16.940;2022-10-16T15:48:28;33.00;42.10
21891;DHT22;11110;52.386;16.940;2022-10-16T15:50:57;32.90;42.10